Time;durP1;ratioP1;P1;durP2;ratioP2;P2;SDS_P1;SDS_P2;PMS_P1;PMS_P2;Temp;Humidity;BMP_temperature;BMP_pressure;BME280_temperature;BME280_humidity;BME280_pressure;Samples;Min_cycle;Max_cycle;Signal;HPM_P1;HPM_P2
2021/11/28 00:01:08;;;;;;;;;;;6.70;60.30;;;;;;5039344;28;19929;-81
2021/11/28 00:03:35;;;;;;;;;;;6.70;61.00;;;;;;5012180;28;20397;-79
2021/11/28 00:06:05;;;;;;;;;;;6.50;62.80;;;;;;5044842;28;19921;-80
2021/11/28 00:11:19;;;;;;;;;;;6.30;61.70;;;;;;5020806;28;19921;-82
2021/11/28 00:13:50;;;;;;;;;;;6.30;61.50;;;;;;5049457;28;19921;-81
2021/11/28 00:16:18;;;;;;;;;;;6.40;62.60;;;;;;5016603;28;19921;-81
2021/11/28 00:18:45;;;;;;;;;;;6.30;64.70;;;;;;5047457;28;19928;-81
2021/11/28 00:21:13;;;;;;;;;;;6.10;65.60;;;;;;5016549;28;19928;-79
2021/11/28 00:23:40;;;;;;;;;;;6.10;64.20;;;;;;5050007;28;19925;-78
2021/11/28 00:26:07;;;;;;;;;;;6.00;64.60;;;;;;5016433;28;19921;-78
2021/11/28 00:28:35;;;;;;;;;;;6.00;64.60;;;;;;5017099;28;20325;-81
2021/11/28 00:31:02;;;;;;;;;;;6.10;65.10;;;;;;5015306;28;19972;-82
2021/11/28 00:33:35;;;;;;;;;;;6.00;65.10;;;;;;5015680;28;19929;-79
2021/11/28 00:36:03;;;;;;;;;;;6.10;65.30;;;;;;5012965;28;19929;-80
2021/11/28 00:38:30;;;;;;;;;;;6.10;64.90;;;;;;5048812;28;20340;-80
2021/11/28 00:40:57;;;;;;;;;;;6.00;64.60;;;;;;5017386;28;19921;-80
2021/11/28 00:43:24;;;;;;;;;;;5.90;63.90;;;;;;5016395;28;19928;-79
2021/11/28 00:45:51;;;;;;;;;;;5.80;65.50;;;;;;5048598;28;19925;-80
2021/11/28 00:48:19;;;;;;;;;;;5.70;70.10;;;;;;5015700;28;20358;-79
2021/11/28 00:50:46;;;;;;;;;;;5.60;73.00;;;;;;5013636;28;20385;-80
2021/11/28 00:53:15;;;;;;;;;;;5.50;73.90;;;;;;5016725;28;19922;-81
2021/11/28 00:55:41;;;;;;;;;;;5.40;70.80;;;;;;5015961;28;19921;-78
2021/11/28 00:58:08;;;;;;;;;;;5.30;70.40;;;;;;5015481;28;20389;-82
2021/11/28 01:00:36;;;;;;;;;;;5.20;68.30;;;;;;5048317;28;19921;-82
2021/11/28 01:03:03;;;;;;;;;;;5.20;65.70;;;;;;5042936;28;19929;-82
2021/11/28 01:05:30;;;;;;;;;;;5.10;72.00;;;;;;5013921;28;19930;-81
2021/11/28 01:07:56;;;;;;;;;;;5.00;69.60;;;;;;5010089;28;19926;-82
2021/11/28 01:10:24;;;;;;;;;;;5.00;70.50;;;;;;5018931;28;19933;-80
2021/11/28 01:12:52;;;;;;;;;;;5.10;62.00;;;;;;5004533;28;19928;-79
2021/11/28 01:15:19;;;;;;;;;;;5.40;60.60;;;;;;5012040;28;19956;-82
2021/11/28 01:17:45;;;;;;;;;;;5.60;63.50;;;;;;5009355;28;19925;-78
2021/11/28 01:20:12;;;;;;;;;;;5.70;63.20;;;;;;5015501;28;19948;-81
2021/11/28 01:22:40;;;;;;;;;;;5.60;67.20;;;;;;5015571;28;19922;-78
2021/11/28 01:25:07;;;;;;;;;;;5.50;65.60;;;;;;5015218;28;19921;-82
2021/11/28 01:27:35;;;;;;;;;;;5.40;66.20;;;;;;5015209;28;19922;-81
2021/11/28 01:30:03;;;;;;;;;;;5.30;66.00;;;;;;5009303;28;19925;-79
2021/11/28 01:32:29;;;;;;;;;;;5.20;69.80;;;;;;5015943;28;19929;-78
2021/11/28 01:34:56;;;;;;;;;;;5.00;73.30;;;;;;5005840;28;20322;-81
2021/11/28 01:37:23;;;;;;;;;;;4.80;74.40;;;;;;5012014;28;19921;-78
2021/11/28 01:39:50;;;;;;;;;;;4.60;77.00;;;;;;5015427;28;19925;-80
2021/11/28 01:42:33;;;;;;;;;;;4.40;79.40;;;;;;5017087;28;20405;-80
2021/11/28 01:44:59;;;;;;;;;;;4.30;80.80;;;;;;5047640;28;19925;-82
2021/11/28 01:47:26;;;;;;;;;;;4.10;81.30;;;;;;5047361;28;19925;-80
2021/11/28 01:49:58;;;;;;;;;;;4.00;81.70;;;;;;5010587;28;19921;-82
2021/11/28 01:52:25;;;;;;;;;;;4.00;82.00;;;;;;5015253;28;20420;-80
2021/11/28 01:54:52;;;;;;;;;;;3.80;83.40;;;;;;5045274;28;19925;-80
2021/11/28 01:57:19;;;;;;;;;;;3.80;83.30;;;;;;5011468;28;20362;-78
2021/11/28 01:59:46;;;;;;;;;;;4.10;83.60;;;;;;5014226;28;19929;-81
2021/11/28 02:02:12;;;;;;;;;;;4.10;83.00;;;;;;5011603;28;19932;-78
2021/11/28 02:04:40;;;;;;;;;;;4.20;82.80;;;;;;5014884;28;20385;-80
2021/11/28 02:07:07;;;;;;;;;;;4.30;82.70;;;;;;5015125;28;19925;-80
2021/11/28 02:09:36;;;;;;;;;;;4.30;82.10;;;;;;5047065;28;19953;-81
2021/11/28 02:12:04;;;;;;;;;;;4.30;82.20;;;;;;5017601;28;20016;-80
2021/11/28 02:14:31;;;;;;;;;;;4.30;82.00;;;;;;5016665;28;19925;-79
2021/11/28 02:16:57;;;;;;;;;;;4.20;81.90;;;;;;5015050;28;19991;-81
2021/11/28 02:19:24;;;;;;;;;;;4.00;83.10;;;;;;5012499;28;19965;-77
2021/11/28 02:21:51;;;;;;;;;;;3.90;82.90;;;;;;5014378;28;19929;-78
2021/11/28 02:24:18;;;;;;;;;;;3.80;83.50;;;;;;5044512;28;20366;-80
2021/11/28 02:26:45;;;;;;;;;;;3.70;83.90;;;;;;5014419;28;19925;-77
2021/11/28 02:29:11;;;;;;;;;;;3.70;83.70;;;;;;5013120;28;19967;-79
2021/11/28 02:31:38;;;;;;;;;;;3.60;85.80;;;;;;5004846;28;20458;-81
2021/11/28 02:34:05;;;;;;;;;;;3.60;84.70;;;;;;5003528;28;20362;-77
2021/11/28 02:36:32;;;;;;;;;;;3.50;84.50;;;;;;5006929;28;19921;-78
2021/11/28 02:38:59;;;;;;;;;;;3.50;84.20;;;;;;5008724;28;19921;-81
2021/11/28 02:41:26;;;;;;;;;;;3.40;84.00;;;;;;5015712;28;19922;-80
2021/11/28 02:43:52;;;;;;;;;;;3.20;84.70;;;;;;5014259;28;20423;-79
2021/11/28 02:46:19;;;;;;;;;;;3.10;86.20;;;;;;5013577;28;20267;-80
2021/11/28 02:48:46;;;;;;;;;;;3.00;85.60;;;;;;5016399;28;19980;-77
2021/11/28 02:51:13;;;;;;;;;;;2.90;85.60;;;;;;5047157;28;20314;-81
2021/11/28 02:53:40;;;;;;;;;;;2.80;86.10;;;;;;5014051;28;19929;-77
2021/11/28 02:56:07;;;;;;;;;;;2.80;87.30;;;;;;5013874;28;20368;-79
2021/11/28 02:58:35;;;;;;;;;;;2.70;86.10;;;;;;5014052;28;20527;-81
2021/11/28 03:01:10;;;;;;;;;;;2.70;86.10;;;;;;5008960;28;19925;-81
2021/11/28 03:03:38;;;;;;;;;;;2.60;87.00;;;;;;5045568;28;19921;-81
2021/11/28 03:06:05;;;;;;;;;;;2.60;88.70;;;;;;5016084;28;19981;-79
2021/11/28 03:08:33;;;;;;;;;;;2.70;88.50;;;;;;5014648;28;20365;-80
2021/11/28 03:11:00;;;;;;;;;;;2.70;88.80;;;;;;5013542;28;20328;-79
2021/11/28 03:13:28;;;;;;;;;;;2.70;89.10;;;;;;5014879;28;19944;-80
2021/11/28 03:15:57;;;;;;;;;;;2.70;90.00;;;;;;5012928;28;20391;-77
2021/11/28 03:18:26;;;;;;;;;;;2.80;90.40;;;;;;5013253;28;19925;-78
2021/11/28 03:20:54;;;;;;;;;;;2.80;90.30;;;;;;5005690;28;19931;-78
2021/11/28 03:23:22;;;;;;;;;;;2.80;90.00;;;;;;5014186;28;20377;-80
2021/11/28 03:25:49;;;;;;;;;;;2.80;90.10;;;;;;5043460;28;19925;-78
2021/11/28 03:28:17;;;;;;;;;;;2.90;89.80;;;;;;5005709;28;19933;-81
2021/11/28 03:30:46;;;;;;;;;;;2.90;90.30;;;;;;5012732;28;19921;-80
2021/11/28 03:33:13;;;;;;;;;;;2.90;90.50;;;;;;5009154;28;19956;-80
2021/11/28 03:35:40;;;;;;;;;;;2.90;90.40;;;;;;5042953;28;19921;-80
2021/11/28 03:38:07;;;;;;;;;;;2.90;90.40;;;;;;5012455;28;19921;-77
2021/11/28 03:40:34;;;;;;;;;;;2.70;90.30;;;;;;5013375;28;19925;-78
2021/11/28 03:43:01;;;;;;;;;;;2.70;90.30;;;;;;5016496;28;20320;-81
2021/11/28 03:45:28;;;;;;;;;;;2.70;90.30;;;;;;5016425;28;19972;-77
2021/11/28 03:47:55;;;;;;;;;;;2.70;90.30;;;;;;5014313;28;19971;-80
2021/11/28 03:50:21;;;;;;;;;;;2.70;90.40;;;;;;5013100;28;19956;-78
2021/11/28 03:52:48;;;;;;;;;;;2.70;90.30;;;;;;5049476;28;19922;-80
2021/11/28 03:55:16;;;;;;;;;;;2.70;90.30;;;;;;5014709;28;20406;-79
2021/11/28 03:57:43;;;;;;;;;;;2.70;90.30;;;;;;5019728;28;20297;-80
2021/11/28 04:00:11;;;;;;;;;;;2.70;90.10;;;;;;5018222;28;19929;-77
2021/11/28 04:02:38;;;;;;;;;;;2.70;90.40;;;;;;5029159;28;19921;-78
2021/11/28 04:05:06;;;;;;;;;;;2.70;90.40;;;;;;5007955;28;20381;-81
2021/11/28 04:07:33;;;;;;;;;;;2.60;90.40;;;;;;5014655;28;19926;-80
2021/11/28 04:10:00;;;;;;;;;;;2.60;90.60;;;;;;5004227;28;19925;-80
2021/11/28 04:12:27;;;;;;;;;;;2.50;90.40;;;;;;5002976;28;19921;-81
2021/11/28 04:14:57;;;;;;;;;;;2.50;90.20;;;;;;5019881;28;19926;-77
2021/11/28 04:17:24;;;;;;;;;;;2.40;90.20;;;;;;5017148;28;20019;-79
2021/11/28 04:19:55;;;;;;;;;;;2.40;90.00;;;;;;5015245;28;20365;-77
2021/11/28 04:22:22;;;;;;;;;;;2.30;90.00;;;;;;5011966;28;19921;-77
2021/11/28 04:24:49;;;;;;;;;;;2.30;90.10;;;;;;5016716;28;20293;-79
2021/11/28 04:27:16;;;;;;;;;;;2.20;90.50;;;;;;5016988;28;19976;-80
2021/11/28 04:29:43;;;;;;;;;;;2.20;90.20;;;;;;5017076;28;20366;-79
2021/11/28 04:32:10;;;;;;;;;;;2.20;90.80;;;;;;5017102;28;19921;-81
2021/11/28 04:34:37;;;;;;;;;;;2.20;90.90;;;;;;5018223;28;20369;-81
2021/11/28 04:37:03;;;;;;;;;;;2.20;90.80;;;;;;5003861;28;19925;-81
2021/11/28 04:39:30;;;;;;;;;;;2.10;90.90;;;;;;5015692;28;20382;-79
2021/11/28 04:41:57;;;;;;;;;;;2.10;91.00;;;;;;5010580;28;19925;-81
2021/11/28 04:44:24;;;;;;;;;;;2.10;90.80;;;;;;5016956;28;19925;-77
2021/11/28 04:46:51;;;;;;;;;;;2.10;91.10;;;;;;5049190;28;20373;-80
2021/11/28 04:49:18;;;;;;;;;;;2.10;91.50;;;;;;5015137;28;19957;-81
2021/11/28 04:51:45;;;;;;;;;;;2.10;91.80;;;;;;5015877;28;19952;-80
2021/11/28 04:54:12;;;;;;;;;;;2.10;91.60;;;;;;5016823;28;19928;-78
2021/11/28 04:56:39;;;;;;;;;;;2.10;91.60;;;;;;5017750;28;19925;-77
2021/11/28 04:59:06;;;;;;;;;;;2.10;91.70;;;;;;5014965;28;19925;-81
2021/11/28 05:01:33;;;;;;;;;;;2.10;91.60;;;;;;5008667;28;19921;-79
2021/11/28 05:04:00;;;;;;;;;;;2.20;91.60;;;;;;5037798;28;19984;-77
2021/11/28 05:06:27;;;;;;;;;;;2.10;91.40;;;;;;5004660;28;20412;-79
2021/11/28 05:08:54;;;;;;;;;;;2.10;91.30;;;;;;5015151;28;19925;-79
2021/11/28 05:11:21;;;;;;;;;;;2.00;91.10;;;;;;5016893;28;19921;-79
2021/11/28 05:13:48;;;;;;;;;;;1.90;90.90;;;;;;5019249;28;19921;-81
2021/11/28 05:16:15;;;;;;;;;;;1.90;91.00;;;;;;5015350;28;19922;-80
2021/11/28 05:18:42;;;;;;;;;;;1.80;90.80;;;;;;5015250;28;19927;-76
2021/11/28 05:21:13;;;;;;;;;;;1.70;90.70;;;;;;5009122;28;19926;-81
2021/11/28 05:23:40;;;;;;;;;;;1.70;91.00;;;;;;5016476;28;19921;-79
2021/11/28 05:26:07;;;;;;;;;;;1.70;91.10;;;;;;5015694;28;20419;-78
2021/11/28 05:28:34;;;;;;;;;;;1.60;91.00;;;;;;5017018;28;19921;-78
2021/11/28 05:31:02;;;;;;;;;;;1.50;90.90;;;;;;5014923;28;20430;-77
2021/11/28 05:33:30;;;;;;;;;;;1.40;91.10;;;;;;5009576;28;19921;-80
2021/11/28 05:35:57;;;;;;;;;;;1.40;91.00;;;;;;5015369;28;19922;-81
2021/11/28 05:38:23;;;;;;;;;;;1.30;90.90;;;;;;5014028;28;19925;-79
2021/11/28 05:40:50;;;;;;;;;;;1.30;91.20;;;;;;5011151;28;19975;-77
2021/11/28 05:43:17;;;;;;;;;;;1.30;91.70;;;;;;5016425;28;19921;-79
2021/11/28 05:45:44;;;;;;;;;;;1.30;91.80;;;;;;5013873;28;19925;-79
2021/11/28 05:48:11;;;;;;;;;;;1.30;91.70;;;;;;5014291;28;19948;-80
2021/11/28 05:50:38;;;;;;;;;;;1.20;91.90;;;;;;5013395;28;19925;-80
2021/11/28 05:53:05;;;;;;;;;;;1.10;91.80;;;;;;5011242;28;19925;-79
2021/11/28 05:55:31;;;;;;;;;;;1.10;92.00;;;;;;5040371;28;19925;-77
2021/11/28 05:57:58;;;;;;;;;;;1.00;92.10;;;;;;5007917;28;19929;-80
2021/11/28 06:00:26;;;;;;;;;;;1.00;92.30;;;;;;5014413;28;20361;-77
2021/11/28 06:02:54;;;;;;;;;;;1.00;92.20;;;;;;5014219;28;20370;-81
2021/11/28 06:05:21;;;;;;;;;;;1.00;91.80;;;;;;5013501;28;19969;-81
2021/11/28 06:07:48;;;;;;;;;;;0.90;91.70;;;;;;5014271;28;19921;-77
2021/11/28 06:10:14;;;;;;;;;;;0.90;92.00;;;;;;5013027;28;19921;-79
2021/11/28 06:12:41;;;;;;;;;;;0.90;92.20;;;;;;5015740;28;19921;-81
2021/11/28 06:15:08;;;;;;;;;;;0.90;92.00;;;;;;5015540;28;19921;-81
2021/11/28 06:17:35;;;;;;;;;;;0.80;92.20;;;;;;5011062;28;19925;-77
2021/11/28 06:20:03;;;;;;;;;;;0.90;92.00;;;;;;5013188;28;20377;-79
2021/11/28 06:22:30;;;;;;;;;;;0.80;91.90;;;;;;5013974;28;19928;-80
2021/11/28 06:24:57;;;;;;;;;;;0.80;92.20;;;;;;5036667;28;19936;-80
2021/11/28 06:27:24;;;;;;;;;;;0.90;92.30;;;;;;5014714;28;19925;-77
2021/11/28 06:29:55;;;;;;;;;;;0.80;92.30;;;;;;5009950;28;19945;-78
2021/11/28 06:32:21;;;;;;;;;;;0.80;92.30;;;;;;5014949;28;20435;-80
2021/11/28 06:34:48;;;;;;;;;;;0.80;92.50;;;;;;5005301;28;19922;-79
2021/11/28 06:37:15;;;;;;;;;;;0.80;92.70;;;;;;5013061;28;20371;-81
2021/11/28 06:40:03;;;;;;;;;;;0.80;92.40;;;;;;5016200;28;19948;-79
2021/11/28 06:42:30;;;;;;;;;;;0.70;92.60;;;;;;5015863;28;19955;-79
2021/11/28 06:44:57;;;;;;;;;;;0.70;93.10;;;;;;5014480;28;20408;-79
2021/11/28 06:47:42;;;;;;;;;;;0.80;93.20;;;;;;5043366;28;19928;-80
2021/11/28 06:50:10;;;;;;;;;;;0.80;92.90;;;;;;5015136;28;19928;-79
2021/11/28 06:52:36;;;;;;;;;;;0.80;92.80;;;;;;5013928;28;19944;-81
2021/11/28 06:55:03;;;;;;;;;;;0.70;92.80;;;;;;5014823;28;19921;-78
2021/11/28 06:57:30;;;;;;;;;;;0.70;92.70;;;;;;5013751;28;19933;-78
2021/11/28 06:59:57;;;;;;;;;;;0.70;92.60;;;;;;5006340;28;19921;-78
2021/11/28 07:02:24;;;;;;;;;;;0.80;93.10;;;;;;5015371;28;20349;-80
2021/11/28 07:04:51;;;;;;;;;;;0.80;93.60;;;;;;5040146;28;20008;-79
2021/11/28 07:07:18;;;;;;;;;;;0.90;93.40;;;;;;5011657;28;19944;-77
2021/11/28 07:09:45;;;;;;;;;;;0.90;93.50;;;;;;5005843;28;19921;-80
2021/11/28 07:12:12;;;;;;;;;;;1.00;93.90;;;;;;5013188;28;20036;-77
2021/11/28 07:14:39;;;;;;;;;;;1.10;94.10;;;;;;5016773;28;20590;-80
2021/11/28 07:17:05;;;;;;;;;;;1.20;94.10;;;;;;5015588;28;19929;-81
2021/11/28 07:19:33;;;;;;;;;;;1.20;94.00;;;;;;5014436;28;20344;-80
2021/11/28 07:21:59;;;;;;;;;;;1.20;94.40;;;;;;5016477;28;20362;-81
2021/11/28 07:24:26;;;;;;;;;;;1.20;94.10;;;;;;5009606;28;19929;-77
2021/11/28 07:26:53;;;;;;;;;;;1.20;93.90;;;;;;5014088;28;19968;-81
2021/11/28 07:29:20;;;;;;;;;;;1.20;93.60;;;;;;5015479;28;19921;-81
2021/11/28 07:31:47;;;;;;;;;;;1.20;93.40;;;;;;5007876;28;19925;-78
2021/11/28 07:34:14;;;;;;;;;;;1.10;93.50;;;;;;5012905;28;19932;-79
2021/11/28 07:36:41;;;;;;;;;;;1.10;93.50;;;;;;5013284;28;20020;-79
2021/11/28 07:39:09;;;;;;;;;;;1.10;93.50;;;;;;5012869;28;20393;-76
2021/11/28 07:41:36;;;;;;;;;;;1.20;93.90;;;;;;5002701;28;19971;-82
2021/11/28 07:44:03;;;;;;;;;;;1.20;94.20;;;;;;5015011;28;19921;-80
2021/11/28 07:46:30;;;;;;;;;;;1.40;94.80;;;;;;5015333;28;19921;-81
2021/11/28 07:48:57;;;;;;;;;;;1.50;95.00;;;;;;5042663;28;19922;-80
2021/11/28 07:51:24;;;;;;;;;;;1.60;94.90;;;;;;5010699;28;20406;-80
2021/11/28 07:53:51;;;;;;;;;;;1.60;94.80;;;;;;5013472;28;19925;-81
2021/11/28 07:56:22;;;;;;;;;;;1.70;94.80;;;;;;5009058;28;19928;-79
2021/11/28 07:58:50;;;;;;;;;;;1.80;94.90;;;;;;5012715;28;19944;-80
2021/11/28 08:01:17;;;;;;;;;;;2.00;95.00;;;;;;5014900;28;19928;-78
2021/11/28 08:03:44;;;;;;;;;;;2.00;95.00;;;;;;5012827;28;19925;-81
2021/11/28 08:06:11;;;;;;;;;;;2.20;95.00;;;;;;5015121;28;19968;-78
2021/11/28 08:08:38;;;;;;;;;;;2.20;94.70;;;;;;5011173;28;20378;-81
2021/11/28 08:11:05;;;;;;;;;;;2.20;94.50;;;;;;4996931;28;20370;-78
2021/11/28 08:13:32;;;;;;;;;;;2.20;94.50;;;;;;5013021;28;20374;-79
2021/11/28 08:15:59;;;;;;;;;;;2.20;94.60;;;;;;5014769;28;19926;-81
2021/11/28 08:18:27;;;;;;;;;;;2.20;94.50;;;;;;5008432;28;20385;-80
2021/11/28 08:20:54;;;;;;;;;;;2.20;94.30;;;;;;5040185;28;19945;-81
2021/11/28 08:23:20;;;;;;;;;;;2.20;94.30;;;;;;5011463;28;19925;-80
2021/11/28 08:25:47;;;;;;;;;;;2.20;94.00;;;;;;5012727;28;20377;-77
2021/11/28 08:28:14;;;;;;;;;;;2.10;93.70;;;;;;5008627;28;19925;-80
2021/11/28 08:30:41;;;;;;;;;;;2.00;93.50;;;;;;5009005;28;19976;-78
2021/11/28 08:33:08;;;;;;;;;;;2.00;93.50;;;;;;5017253;28;20415;-77
2021/11/28 08:35:35;;;;;;;;;;;1.90;93.80;;;;;;5014061;28;19922;-82
2021/11/28 08:38:03;;;;;;;;;;;2.00;94.20;;;;;;5008147;28;19922;-82
2021/11/28 08:40:30;;;;;;;;;;;2.10;94.50;;;;;;5016197;28;19922;-80
2021/11/28 08:42:57;;;;;;;;;;;2.30;94.50;;;;;;5000405;28;19921;-81
2021/11/28 08:45:24;;;;;;;;;;;2.50;94.60;;;;;;5010665;28;19929;-77
2021/11/28 08:47:51;;;;;;;;;;;2.70;94.80;;;;;;5013189;28;19980;-81
2021/11/28 08:50:18;;;;;;;;;;;3.00;94.80;;;;;;5046023;28;19921;-78
2021/11/28 08:52:45;;;;;;;;;;;3.20;94.70;;;;;;5013483;28;20313;-82
2021/11/28 08:55:13;;;;;;;;;;;3.40;94.50;;;;;;5010949;28;19929;-79
2021/11/28 08:57:40;;;;;;;;;;;3.70;94.10;;;;;;5015442;28;19921;-82
2021/11/28 09:00:08;;;;;;;;;;;3.90;93.80;;;;;;5015474;28;19921;-78
2021/11/28 09:02:34;;;;;;;;;;;4.10;93.60;;;;;;5010426;28;19925;-83
2021/11/28 09:05:02;;;;;;;;;;;4.30;93.40;;;;;;5014229;28;19929;-82
2021/11/28 09:07:29;;;;;;;;;;;4.50;93.20;;;;;;5013738;28;19944;-78
2021/11/28 09:09:56;;;;;;;;;;;4.60;92.60;;;;;;5044696;28;19995;-81
2021/11/28 09:12:23;;;;;;;;;;;4.80;92.60;;;;;;5015764;28;19928;-79
2021/11/28 09:14:50;;;;;;;;;;;5.00;92.40;;;;;;5015210;28;19921;-79
2021/11/28 09:17:17;;;;;;;;;;;5.10;92.30;;;;;;5047444;28;19921;-77
2021/11/28 09:19:54;;;;;;;;;;;5.20;91.70;;;;;;5010752;28;20362;-81
2021/11/28 09:25:06;;;;;;;;;;;5.50;91.50;;;;;;5016365;28;20266;-82
2021/11/28 09:27:33;;;;;;;;;;;5.60;91.30;;;;;;5016076;28;19928;-80
2021/11/28 09:30:02;;;;;;;;;;;5.70;91.00;;;;;;5004112;28;19921;-83
2021/11/28 09:32:30;;;;;;;;;;;5.80;89.80;;;;;;5014957;28;19929;-79
2021/11/28 09:34:57;;;;;;;;;;;5.80;88.60;;;;;;5015469;28;20419;-81
2021/11/28 09:37:24;;;;;;;;;;;5.90;88.30;;;;;;5014794;28;19921;-80
2021/11/28 09:39:51;;;;;;;;;;;5.90;88.70;;;;;;5047363;28;19976;-78
2021/11/28 09:42:22;;;;;;;;;;;6.00;87.80;;;;;;5012392;28;19928;-83
2021/11/28 09:44:49;;;;;;;;;;;6.20;88.90;;;;;;5015733;28;20452;-83
2021/11/28 09:47:17;;;;;;;;;;;6.20;87.80;;;;;;5016961;28;19929;-84
2021/11/28 09:49:44;;;;;;;;;;;6.30;86.50;;;;;;5022598;28;19921;-79
2021/11/28 09:52:15;;;;;;;;;;;6.40;86.40;;;;;;5018637;28;19922;-76
2021/11/28 09:54:43;;;;;;;;;;;6.50;85.40;;;;;;5015880;28;19925;-80
2021/11/28 09:57:15;;;;;;;;;;;6.60;86.20;;;;;;5015835;28;20471;-77
2021/11/28 09:59:45;;;;;;;;;;;6.80;86.20;;;;;;5016585;28;19925;-79
2021/11/28 10:02:20;;;;;;;;;;;6.90;83.80;;;;;;5025332;28;19973;-81
2021/11/28 10:04:47;;;;;;;;;;;6.90;82.20;;;;;;5020623;28;19968;-79
2021/11/28 10:07:14;;;;;;;;;;;6.90;81.80;;;;;;5011779;28;19921;-79
2021/11/28 10:09:42;;;;;;;;;;;6.90;81.50;;;;;;5008655;28;19925;-79
2021/11/28 10:12:12;;;;;;;;;;;7.00;82.60;;;;;;5016525;28;19975;-80
2021/11/28 10:14:39;;;;;;;;;;;7.10;80.50;;;;;;5028763;28;19957;-78
2021/11/28 10:17:06;;;;;;;;;;;7.20;79.40;;;;;;5016932;28;19933;-76
2021/11/28 10:19:35;;;;;;;;;;;7.30;79.80;;;;;;5020433;28;19921;-80
2021/11/28 10:22:03;;;;;;;;;;;7.40;79.10;;;;;;5025477;28;19921;-80
2021/11/28 10:24:31;;;;;;;;;;;7.50;77.80;;;;;;5019823;28;19929;-81
2021/11/28 10:27:00;;;;;;;;;;;7.60;77.10;;;;;;5014318;28;20378;-80
2021/11/28 10:29:28;;;;;;;;;;;7.70;76.20;;;;;;5015015;28;20270;-80
2021/11/28 10:31:56;;;;;;;;;;;7.80;75.60;;;;;;5047699;28;20431;-77
2021/11/28 10:34:24;;;;;;;;;;;7.90;75.80;;;;;;5014998;28;19928;-76
2021/11/28 10:36:52;;;;;;;;;;;8.00;75.00;;;;;;5013535;28;19987;-80
2021/11/28 10:39:21;;;;;;;;;;;8.10;74.00;;;;;;5013986;28;19928;-81
2021/11/28 10:41:49;;;;;;;;;;;8.10;74.10;;;;;;5013403;28;20296;-80
2021/11/28 10:44:17;;;;;;;;;;;8.30;73.20;;;;;;5013462;28;19925;-80
2021/11/28 10:46:44;;;;;;;;;;;8.40;72.20;;;;;;5014047;28;20365;-81
2021/11/28 10:49:19;;;;;;;;;;;8.50;71.40;;;;;;5014652;28;20008;-79
2021/11/28 10:51:50;;;;;;;;;;;8.40;68.80;;;;;;5013207;28;19948;-80
2021/11/28 10:54:36;;;;;;;;;;;8.40;70.90;;;;;;5013806;28;20366;-80
2021/11/28 10:57:06;;;;;;;;;;;8.50;70.20;;;;;;5014019;28;19921;-76
2021/11/28 10:59:39;;;;;;;;;;;8.60;69.40;;;;;;5011952;28;19921;-81
2021/11/28 11:02:22;;;;;;;;;;;8.70;68.10;;;;;;5009713;28;19929;-80
2021/11/28 11:04:52;;;;;;;;;;;8.80;69.10;;;;;;5042087;28;19927;-81
2021/11/28 11:07:48;;;;;;;;;;;8.80;67.40;;;;;;4999060;28;19929;-81
2021/11/28 11:10:25;;;;;;;;;;;8.90;66.90;;;;;;5012872;28;19971;-81
2021/11/28 11:12:53;;;;;;;;;;;9.00;66.50;;;;;;5015269;28;19925;-80
2021/11/28 11:15:29;;;;;;;;;;;9.20;65.90;;;;;;5002763;28;19927;-79
2021/11/28 11:17:58;;;;;;;;;;;9.20;64.50;;;;;;5015722;28;20389;-80
2021/11/28 11:20:27;;;;;;;5.60;3.75;;;9.40;66.30;;;;;;5007407;28;19921;-76
2021/11/28 11:22:55;;;;;;;6.13;4.50;;;9.60;63.60;;;;;;5014157;28;20400;-80
2021/11/28 11:25:46;;;;;;;5.53;4.22;;;9.60;64.70;;;;;;5008190;28;20457;-80
2021/11/28 11:28:14;;;;;;;5.50;4.20;;;9.80;63.70;;;;;;5011125;28;20424;-81
2021/11/28 11:30:42;;;;;;;6.63;4.28;;;9.90;60.40;;;;;;5003543;28;20420;-75
2021/11/28 11:33:10;;;;;;;5.47;4.05;;;9.90;61.50;;;;;;5014805;28;20395;-76
2021/11/28 11:35:44;;;;;;;6.07;4.50;;;9.90;60.00;;;;;;5008533;28;20392;-77
2021/11/28 11:38:14;;;;;;;5.45;4.60;;;10.00;60.00;;;;;;5014151;28;20426;-80
2021/11/28 11:40:43;;;;;;;6.35;4.55;;;9.90;59.40;;;;;;5011635;28;20439;-81
2021/11/28 11:43:10;;;;;;;5.50;4.65;;;9.80;59.80;;;;;;5017426;28;20416;-80
2021/11/28 11:45:38;;;;;;;6.30;4.85;;;9.80;60.30;;;;;;5009858;28;20404;-80
2021/11/28 11:48:07;;;;;;;5.45;4.38;;;9.90;59.90;;;;;;5021221;28;20414;-81
2021/11/28 11:50:36;;;;;;;6.38;4.32;;;9.80;60.50;;;;;;5011229;28;20739;-81
2021/11/28 11:53:07;;;;;;;7.17;5.10;;;9.70;59.00;;;;;;5013536;28;20408;-81
2021/11/28 11:55:39;;;;;;;6.53;4.67;;;9.70;60.40;;;;;;5010899;28;20409;-77
2021/11/28 11:58:34;;;;;;;7.05;4.88;;;9.70;60.80;;;;;;5011804;28;20443;-81
2021/11/28 12:01:11;;;;;;;5.93;4.63;;;9.60;59.80;;;;;;5011707;28;20419;-81
2021/11/28 12:03:51;;;;;;;6.25;4.85;;;9.50;60.60;;;;;;5016361;28;20824;-81
2021/11/28 12:06:45;;;;;;;7.13;5.43;;;9.30;62.00;;;;;;5014218;28;20411;-81
2021/11/28 12:09:27;;;;;;;6.88;4.93;;;9.20;62.40;;;;;;5011243;28;20408;-81
2021/11/28 12:12:00;;;;;;;6.05;4.65;;;9.30;62.30;;;;;;5013801;28;20416;-81
2021/11/28 12:14:27;;;;;;;6.13;5.32;;;9.40;62.10;;;;;;5026513;28;20414;-80
2021/11/28 12:16:55;;;;;;;7.38;5.68;;;9.60;62.20;;;;;;5015994;28;20423;-81
2021/11/28 12:19:40;;;;;;;6.93;5.57;;;9.80;60.90;;;;;;5019083;28;20396;-81
2021/11/28 12:22:39;;;;;;;8.05;6.60;;;10.00;62.30;;;;;;5014008;28;20930;-80
2021/11/28 12:25:37;;;;;;;7.70;6.32;;;10.10;61.70;;;;;;5042245;28;20404;-81
2021/11/28 12:28:19;;;;;;;7.90;6.07;;;10.30;64.10;;;;;;5029359;28;20488;-77
2021/11/28 12:31:09;;;;;;;8.00;5.93;;;10.70;63.90;;;;;;5013672;28;20413;-81
2021/11/28 12:33:52;;;;;;;9.82;6.13;;;10.90;63.10;;;;;;5010830;28;20422;-81
2021/11/28 12:36:35;;;;;;;9.77;6.90;;;11.10;60.80;;;;;;5044105;28;20407;-81
2021/11/28 12:39:23;;;;;;;10.88;7.60;;;11.10;59.60;;;;;;5014360;28;20776;-82
2021/11/28 12:42:02;;;;;;;7.82;5.47;;;11.30;61.50;;;;;;5028046;28;20416;-78
2021/11/28 12:44:38;;;;;;;5.68;4.88;;;11.30;58.00;;;;;;5013342;28;20403;-80
2021/11/28 12:47:08;;;;;;;7.43;5.23;;;11.30;56.90;;;;;;5011386;28;20485;-81
2021/11/28 12:49:45;;;;;;;9.65;5.45;;;11.20;57.60;;;;;;5040785;28;20427;-81
2021/11/28 12:52:32;;;;;;;8.77;7.07;;;11.40;59.40;;;;;;5012982;28;20466;-81
2021/11/28 12:55:08;;;;;;;8.15;6.68;;;11.50;58.70;;;;;;5014715;28;20415;-80
2021/11/28 12:57:36;;;;;;;8.40;6.70;;;11.50;58.70;;;;;;5014626;28;20896;-81
2021/11/28 13:00:27;;;;;;;7.13;5.95;;;11.50;58.60;;;;;;5015944;28;20872;-80
2021/11/28 13:03:08;;;;;;;7.75;6.00;;;11.50;58.60;;;;;;5013395;28;20734;-77
2021/11/28 13:05:43;;;;;;;6.75;5.50;;;11.40;58.20;;;;;;5046404;28;20408;-83
2021/11/28 13:08:11;;;;;;;7.13;5.50;;;11.30;57.40;;;;;;5034710;28;20412;-81
2021/11/28 13:10:52;;;;;;;7.32;5.15;;;11.20;57.50;;;;;;5013151;28;20753;-81
2021/11/28 13:13:28;;;;;;;5.95;4.88;;;11.20;56.00;;;;;;5001201;28;20407;-82
2021/11/28 13:15:57;;;;;;;7.40;5.40;;;11.20;55.60;;;;;;5010242;28;20887;-80
2021/11/28 13:18:31;;;;;;;5.67;4.53;;;11.10;56.30;;;;;;5013534;28;20426;-81
2021/11/28 13:21:13;;;;;;;5.55;4.30;;;11.10;55.30;;;;;;5012129;28;20419;-77
2021/11/28 13:23:43;;;;;;;8.00;6.47;;;11.10;56.00;;;;;;5010187;28;20455;-80
2021/11/28 13:26:24;;;;;;;8.20;5.90;;;11.20;57.40;;;;;;4994122;28;20402;-82
2021/11/28 13:28:55;;;;;;;5.78;5.00;;;11.20;55.90;;;;;;5009275;28;20411;-81
2021/11/28 13:31:23;;;;;;;5.97;4.97;;;11.10;55.60;;;;;;5011859;28;20864;-80
2021/11/28 13:34:02;;;;;;;7.82;5.03;;;11.00;54.90;;;;;;5013173;28;20915;-81
2021/11/28 13:36:45;;;;;;;5.82;4.35;;;11.10;54.20;;;;;;5013531;28;20404;-81
2021/11/28 13:39:16;;;;;;;5.43;4.45;;;11.00;53.90;;;;;;5013593;28;20885;-80
2021/11/28 13:41:44;;;;;;;8.40;6.55;;;11.00;54.40;;;;;;5013352;28;20778;-81
2021/11/28 13:44:16;;;;;;;6.88;5.38;;;11.00;55.50;;;;;;5012826;28;20470;-81
2021/11/28 13:46:58;;;;;;;7.65;4.75;;;11.00;55.40;;;;;;5003363;28;20397;-82
2021/11/28 13:49:30;;;;;;;6.70;5.20;;;11.00;55.20;;;;;;5004384;28;20404;-77
2021/11/28 13:52:06;;;;;;;5.53;4.57;;;11.00;54.10;;;;;;5010028;28;20443;-80
2021/11/28 13:54:36;;;;;;;6.03;4.97;;;10.90;54.70;;;;;;5013199;28;20491;-81
2021/11/28 13:57:21;;;;;;;6.05;4.93;;;11.00;55.90;;;;;;5010498;28;20423;-81
2021/11/28 13:59:51;;;;;;;7.15;5.50;;;11.00;56.00;;;;;;5013084;28;20404;-82
2021/11/28 14:02:21;;;;;;;6.70;4.23;;;11.10;56.20;;;;;;5011554;28;20417;-81
2021/11/28 14:05:04;;;;;;;6.28;3.90;;;11.10;52.00;;;;;;5001367;28;20757;-82
2021/11/28 14:07:48;;;;;;;4.68;3.85;;;11.00;52.60;;;;;;5013090;28;20835;-81
2021/11/28 14:10:18;;;;;;;5.38;4.00;;;10.90;52.30;;;;;;5045895;28;20426;-79
2021/11/28 14:12:52;;;;;;;5.55;4.25;;;10.90;52.80;;;;;;5013486;28;20935;-78
2021/11/28 14:15:22;;;;;;;5.35;4.35;;;10.90;53.40;;;;;;5011341;28;20467;-81
2021/11/28 14:18:01;;;;;;;5.68;4.68;;;10.80;52.20;;;;;;5008940;28;20423;-77
2021/11/28 14:20:42;;;;;;;5.70;4.40;;;10.80;52.30;;;;;;5011371;28;20404;-78
2021/11/28 14:23:10;;;;;;;4.90;3.97;;;10.80;51.10;;;;;;5044796;28;20918;-78
2021/11/28 14:25:40;;;;;;;4.88;3.83;;;10.70;50.80;;;;;;5011340;28;20879;-81